createdAt,value
2022-09-01T00:00:41.513Z,11.53
2022-09-01T00:01:41.522Z,11.60
2022-09-01T00:02:41.529Z,11.74
2022-09-01T00:03:41.501Z,11.62
2022-09-01T00:04:41.543Z,11.57
2022-09-01T00:05:41.544Z,11.69
2022-09-01T00:06:41.511Z,11.54
2022-09-01T00:07:41.440Z,11.60
2022-09-01T00:08:41.429Z,11.51
2022-09-01T00:09:41.423Z,11.59
2022-09-01T00:10:41.434Z,11.59
2022-09-01T00:11:41.413Z,11.49
2022-09-01T00:12:41.433Z,11.56
2022-09-01T00:13:41.370Z,11.48
2022-09-01T00:14:41.739Z,11.49
2022-09-01T00:15:41.438Z,11.44
2022-09-01T00:16:41.351Z,11.51
2022-09-01T00:17:41.328Z,11.45
2022-09-01T00:18:41.329Z,11.57
2022-09-01T00:19:41.339Z,11.38
2022-09-01T00:20:41.305Z,11.46
2022-09-01T00:21:41.293Z,11.36
2022-09-01T00:22:41.287Z,11.48
2022-09-01T00:23:41.267Z,11.48
2022-09-01T00:24:41.269Z,11.44
2022-09-01T00:25:41.251Z,11.44
2022-09-01T00:26:41.235Z,11.57
2022-09-01T00:27:41.222Z,11.56
2022-09-01T00:28:41.223Z,11.59
2022-09-01T00:29:43.303Z,11.57
2022-09-01T00:30:41.254Z,11.54
2022-09-01T00:31:41.277Z,11.49
2022-09-01T00:32:41.170Z,11.57
2022-09-01T00:33:41.171Z,11.57
2022-09-01T00:34:41.156Z,11.53
2022-09-01T00:35:41.139Z,11.56
2022-09-01T00:36:41.168Z,11.57
2022-09-01T00:37:41.140Z,11.62
2022-09-01T00:38:41.106Z,11.56
2022-09-01T00:39:41.097Z,11.56
2022-09-01T00:40:41.158Z,11.57
2022-09-01T00:41:41.098Z,11.54
2022-09-01T00:42:41.090Z,11.63
2022-09-01T00:43:41.081Z,11.59
2022-09-01T00:44:41.047Z,11.63
2022-09-01T00:45:41.114Z,11.53
2022-09-01T00:46:47.751Z,11.59
2022-09-01T00:47:42.034Z,11.64
2022-09-01T00:48:41.000Z,11.59
2022-09-01T00:49:40.983Z,11.62
2022-09-01T00:50:40.977Z,11.59
2022-09-01T00:51:40.966Z,11.67
2022-09-01T00:52:40.970Z,11.56
2022-09-01T00:53:41.052Z,11.66
2022-09-01T00:54:40.933Z,11.64
2022-09-01T00:55:40.921Z,11.66
2022-09-01T00:56:40.920Z,11.59
2022-09-01T00:57:41.907Z,11.64
2022-09-01T00:58:40.895Z,11.69
2022-09-01T00:59:40.983Z,11.64
2022-09-01T01:00:40.887Z,11.56
2022-09-01T01:01:40.908Z,11.74
2022-09-01T01:02:40.905Z,11.62
2022-09-01T01:03:40.837Z,11.53
2022-09-01T01:04:40.835Z,11.54
2022-09-01T01:05:40.823Z,11.56
2022-09-01T01:06:40.809Z,11.59
2022-09-01T01:07:40.787Z,11.60
2022-09-01T01:08:40.781Z,11.64
2022-09-01T01:09:40.780Z,11.75
2022-09-01T01:10:40.762Z,11.64
2022-09-01T01:11:40.748Z,11.53
2022-09-01T01:12:40.771Z,11.63
2022-09-01T01:13:40.730Z,11.51
2022-09-01T01:14:40.720Z,11.53
2022-09-01T01:15:40.761Z,11.49
2022-09-01T01:16:40.753Z,11.67
2022-09-01T01:17:40.678Z,11.56
2022-09-01T01:18:40.698Z,11.46
2022-09-01T01:19:40.683Z,11.54
2022-09-01T01:20:40.660Z,11.62
2022-09-01T01:21:40.637Z,11.57
2022-09-01T01:22:40.637Z,11.49
2022-09-01T01:23:40.622Z,11.51
2022-09-01T01:24:40.615Z,11.49
2022-09-01T01:25:40.599Z,11.51
2022-09-01T01:26:40.602Z,11.49
2022-09-01T01:27:43.188Z,11.46
2022-09-01T01:28:40.575Z,11.54
2022-09-01T01:29:40.594Z,11.51
2022-09-01T01:30:40.607Z,11.45
2022-09-01T01:31:40.534Z,11.48
2022-09-01T01:32:40.539Z,11.45
2022-09-01T01:33:40.510Z,11.36
2022-09-01T01:34:40.498Z,11.38
2022-09-01T01:35:40.499Z,11.46
2022-09-01T01:36:40.491Z,11.41
2022-09-01T01:37:40.640Z,11.38
2022-09-01T01:38:40.482Z,11.36
2022-09-01T01:39:40.452Z,11.42
2022-09-01T01:40:40.545Z,11.35
2022-09-01T01:41:40.439Z,11.35
2022-09-01T01:42:40.461Z,11.24
2022-09-01T01:43:40.466Z,11.42
2022-09-01T01:44:40.413Z,11.38
2022-09-01T01:45:40.460Z,11.42
2022-09-01T01:46:40.368Z,11.44
2022-09-01T01:47:40.356Z,11.26
2022-09-01T01:48:40.392Z,11.30
2022-09-01T01:49:40.355Z,11.33
2022-09-01T01:50:40.323Z,11.33
2022-09-01T01:51:40.315Z,11.28
2022-09-01T01:52:40.316Z,11.23
2022-09-01T01:53:41.304Z,11.27
2022-09-01T01:54:40.309Z,11.27
2022-09-01T01:55:40.267Z,11.30
2022-09-01T01:56:40.294Z,11.24
2022-09-01T01:57:40.258Z,11.24
2022-09-01T01:58:40.245Z,11.16
2022-09-01T01:59:40.378Z,11.26
2022-09-01T02:00:40.221Z,11.26
2022-09-01T02:01:40.275Z,11.26
2022-09-01T02:02:40.315Z,11.30
2022-09-01T02:03:40.200Z,11.21
2022-09-01T02:04:40.204Z,11.28
2022-09-01T02:05:40.183Z,11.23
2022-09-01T02:06:40.155Z,11.26
2022-09-01T02:07:40.155Z,11.27
2022-09-01T02:08:40.133Z,11.33
2022-09-01T02:09:40.124Z,11.31
2022-09-01T02:10:40.141Z,11.21
2022-09-01T02:11:40.129Z,11.24
2022-09-01T02:12:40.094Z,11.26
2022-09-01T02:13:40.118Z,11.20
2022-09-01T02:14:40.081Z,11.19
2022-09-01T02:15:40.052Z,11.13
2022-09-01T02:16:40.105Z,11.16
2022-09-01T02:17:40.042Z,11.13
2022-09-01T02:19:59.040Z,11.05
2022-09-01T02:21:06.487Z,11.02
2022-09-01T02:21:58.917Z,11.12
2022-09-01T02:22:58.911Z,11.16
2022-09-01T02:23:59.029Z,11.12
2022-09-01T02:24:58.905Z,11.06
2022-09-01T02:26:15.717Z,10.95
2022-09-01T02:26:59.893Z,11.08
2022-09-01T02:27:58.864Z,11.08
2022-09-01T02:28:58.871Z,11.17
2022-09-01T02:29:58.834Z,11.17
2022-09-01T02:30:58.901Z,11.06
2022-09-01T02:31:58.887Z,11.13
2022-09-01T02:32:58.805Z,11.11
2022-09-01T02:33:58.800Z,11.06
2022-09-01T02:34:58.784Z,10.94
2022-09-01T02:35:58.820Z,11.05
2022-09-01T02:36:58.785Z,11.06
2022-09-01T02:37:58.772Z,11.03
2022-09-01T02:38:58.737Z,11.03
2022-09-01T02:39:58.736Z,11.06
2022-09-01T02:40:58.728Z,11.12
2022-09-01T02:41:58.748Z,11.06
2022-09-01T02:42:58.728Z,11.08
2022-09-01T02:43:58.692Z,11.12
2022-09-01T02:44:58.693Z,11.13
2022-09-01T02:45:58.745Z,11.09
2022-09-01T02:46:58.667Z,11.19
2022-09-01T02:47:58.654Z,11.16
2022-09-01T02:48:58.627Z,11.20
2022-09-01T02:49:58.625Z,11.16
2022-09-01T02:50:58.625Z,11.11
2022-09-01T02:51:58.593Z,11.06
2022-09-01T02:53:03.238Z,11.02
2022-09-01T02:53:59.576Z,11.02
2022-09-01T02:54:58.587Z,11.03
2022-09-01T02:55:58.558Z,11.02
2022-09-01T02:56:58.572Z,11.09
2022-09-01T02:57:58.541Z,11.09
2022-09-01T02:58:58.566Z,11.01
2022-09-01T02:59:58.514Z,11.09
2022-09-01T03:00:58.543Z,11.21
2022-09-01T03:01:58.490Z,11.13
2022-09-01T03:02:58.495Z,11.16
2022-09-01T03:03:58.596Z,11.12
2022-09-01T03:04:58.506Z,11.06
2022-09-01T03:05:58.483Z,11.01
2022-09-01T03:06:58.453Z,11.09
2022-09-01T03:07:58.435Z,11.24
2022-09-01T03:08:58.432Z,11.12
2022-09-01T03:09:58.423Z,11.19
2022-09-01T03:10:58.394Z,11.23
2022-09-01T03:11:58.387Z,11.23
2022-09-01T03:12:58.382Z,11.11
2022-09-01T03:13:58.392Z,11.20
2022-09-01T03:14:58.367Z,11.19
2022-09-01T03:15:58.346Z,11.21
2022-09-01T03:16:58.386Z,11.23
2022-09-01T03:17:58.397Z,11.16
2022-09-01T03:18:58.309Z,11.17
2022-09-01T03:19:58.293Z,11.20
2022-09-01T03:20:58.344Z,11.20
2022-09-01T03:21:58.295Z,11.09
2022-09-01T03:22:58.286Z,11.09
2022-09-01T03:23:58.328Z,11.08
2022-09-01T03:24:58.246Z,11.16
2022-09-01T03:25:58.412Z,11.01
2022-09-01T03:26:58.248Z,11.08
2022-09-01T03:27:58.208Z,11.03
2022-09-01T03:28:58.198Z,11.13
2022-09-01T03:29:58.187Z,11.19
2022-09-01T03:30:58.175Z,11.05
2022-09-01T03:31:58.297Z,11.13
2022-09-01T03:32:58.269Z,11.20
2022-09-01T03:33:58.142Z,11.21
2022-09-01T03:34:58.139Z,11.28
2022-09-01T03:35:58.122Z,11.09
2022-09-01T03:36:58.108Z,11.11
2022-09-01T03:37:58.123Z,11.11
2022-09-01T03:38:58.121Z,11.19
2022-09-01T03:39:58.159Z,11.09
2022-09-01T03:40:58.098Z,11.17
2022-09-01T03:41:58.060Z,11.17
2022-09-01T03:42:58.063Z,11.19
2022-09-01T03:43:58.082Z,11.16
2022-09-01T03:44:58.042Z,11.20
2022-09-01T03:45:58.099Z,11.19
2022-09-01T03:46:58.000Z,11.21
2022-09-01T03:47:57.992Z,11.20
2022-09-01T03:48:57.982Z,11.26
2022-09-01T03:49:57.978Z,11.27
2022-09-01T03:50:57.997Z,11.26
2022-09-01T03:51:57.963Z,11.28
2022-09-01T03:52:57.940Z,11.19
2022-09-01T03:53:59.118Z,11.27
2022-09-01T03:54:57.968Z,11.24
2022-09-01T03:55:57.951Z,11.23
2022-09-01T03:56:57.893Z,11.28
2022-09-01T03:57:57.891Z,11.20
2022-09-01T03:58:57.888Z,11.17
2022-09-01T03:59:57.871Z,11.19
2022-09-01T04:00:58.060Z,11.20
2022-09-01T04:01:57.971Z,11.21
2022-09-01T04:02:57.849Z,11.28
2022-09-01T04:03:57.825Z,11.17
2022-09-01T04:04:57.813Z,11.26
2022-09-01T04:05:57.818Z,11.19
2022-09-01T04:06:57.802Z,11.20
2022-09-01T04:07:57.805Z,11.21
2022-09-01T04:08:57.871Z,11.23
2022-09-01T04:09:57.768Z,11.24
2022-09-01T04:10:57.749Z,11.27
2022-09-01T04:11:57.794Z,11.26
2022-09-01T04:12:57.723Z,11.21
2022-09-01T04:13:57.740Z,11.20
2022-09-01T04:14:57.818Z,11.23
2022-09-01T04:15:57.697Z,11.21
2022-09-01T04:16:57.721Z,11.23
2022-09-01T04:17:57.677Z,11.17
2022-09-01T04:18:57.669Z,11.19
2022-09-01T04:19:57.673Z,11.16
2022-09-01T04:20:57.714Z,11.20
2022-09-01T04:21:57.681Z,11.17
2022-09-01T04:22:57.620Z,11.11
2022-09-01T04:23:57.609Z,11.05
2022-09-01T04:24:57.620Z,11.03
2022-09-01T04:25:57.608Z,11.06
2022-09-01T04:26:57.571Z,10.98
2022-09-01T04:27:57.590Z,10.99
2022-09-01T04:28:57.549Z,10.91
2022-09-01T04:29:57.979Z,10.95
2022-09-01T04:30:57.545Z,10.99
2022-09-01T04:31:57.612Z,11.11
2022-09-01T04:32:57.682Z,11.06
2022-09-01T04:33:57.517Z,10.99
2022-09-01T04:34:57.540Z,11.08
2022-09-01T04:35:57.475Z,11.03
2022-09-01T04:36:57.467Z,10.98
2022-09-01T04:37:57.469Z,10.91
2022-09-01T04:38:57.447Z,11.02
2022-09-01T04:39:57.740Z,10.93
2022-09-01T04:40:57.463Z,10.90
2022-09-01T04:41:57.419Z,10.93
2022-09-01T04:42:57.408Z,10.95
2022-09-01T04:43:57.420Z,10.91
2022-09-01T04:44:57.891Z,10.83
2022-09-01T04:45:57.451Z,10.83
2022-09-01T04:46:57.391Z,10.88
2022-09-01T04:47:57.345Z,10.87
2022-09-01T04:48:57.352Z,10.94
2022-09-01T04:49:57.345Z,10.90
2022-09-01T04:50:57.317Z,10.80
2022-09-01T04:51:57.309Z,10.90
2022-09-01T04:52:57.312Z,10.78
2022-09-01T04:53:57.375Z,10.80
2022-09-01T04:54:57.270Z,10.80
2022-09-01T04:55:57.285Z,10.78
2022-09-01T04:56:57.249Z,10.73
2022-09-01T04:57:57.239Z,10.83
2022-09-01T04:58:57.239Z,10.88
2022-09-01T04:59:57.224Z,10.94
2022-09-01T05:00:57.281Z,10.84
2022-09-01T05:01:57.242Z,10.84
2022-09-01T05:02:57.182Z,10.84
2022-09-01T05:03:57.173Z,10.86
2022-09-01T05:04:57.160Z,10.78
2022-09-01T05:05:57.161Z,10.80
2022-09-01T05:06:57.261Z,10.87
2022-09-01T05:07:57.138Z,10.86
2022-09-01T05:08:57.126Z,10.80
2022-09-01T05:10:01.062Z,10.80
2022-09-01T05:10:57.242Z,10.84
2022-09-01T05:11:57.093Z,10.84
2022-09-01T05:12:57.097Z,10.81
2022-09-01T05:13:57.068Z,10.90
2022-09-01T05:14:57.067Z,10.86
2022-09-01T05:15:57.082Z,10.83
2022-09-01T05:16:57.034Z,10.87
2022-09-01T05:17:57.028Z,10.88
2022-09-01T05:18:57.238Z,10.86
2022-09-01T05:19:57.055Z,10.81
2022-09-01T05:20:57.059Z,10.76
2022-09-01T05:21:56.996Z,10.81
2022-09-01T05:22:56.967Z,10.81
2022-09-01T05:23:56.959Z,10.83
2022-09-01T05:24:56.957Z,10.69
2022-09-01T05:25:56.975Z,10.91
2022-09-01T05:26:57.008Z,10.94
2022-09-01T05:27:57.004Z,10.81
2022-09-01T05:28:56.983Z,10.94
2022-09-01T05:29:57.115Z,10.90
2022-09-01T05:30:57.890Z,10.83
2022-09-01T05:31:56.924Z,10.81
2022-09-01T05:32:56.978Z,10.69
2022-09-01T05:33:56.879Z,10.75
2022-09-01T05:34:56.886Z,10.66
2022-09-01T05:35:56.832Z,10.80
2022-09-01T05:36:56.875Z,10.66
2022-09-01T05:37:56.929Z,10.80
2022-09-01T05:38:56.909Z,10.76
2022-09-01T05:39:56.915Z,10.86
2022-09-01T05:40:56.798Z,10.81
2022-09-01T05:41:56.868Z,10.73
2022-09-01T05:42:56.817Z,10.76
2022-09-01T05:44:00.511Z,10.70
2022-09-01T05:44:56.779Z,10.80
2022-09-01T05:46:06.641Z,10.73
2022-09-01T05:46:57.829Z,10.81
2022-09-01T05:47:56.771Z,10.83
2022-09-01T05:48:56.746Z,10.95
2022-09-01T05:49:56.710Z,10.84
2022-09-01T05:50:56.671Z,10.78
2022-09-01T05:51:56.671Z,10.80
2022-09-01T05:52:56.646Z,10.80
2022-09-01T05:53:56.645Z,10.76
2022-09-01T05:54:56.630Z,10.73
2022-09-01T05:55:56.736Z,10.75
2022-09-01T05:56:56.645Z,10.76
2022-09-01T05:57:56.617Z,10.72
2022-09-01T05:59:57.589Z,10.80
2022-09-01T06:00:56.588Z,10.87
2022-09-01T06:01:56.810Z,10.75
2022-09-01T06:02:56.689Z,10.84
2022-09-01T06:03:56.542Z,10.86
2022-09-01T06:04:56.513Z,10.91
2022-09-01T06:05:56.537Z,10.91
2022-09-01T06:07:13.638Z,10.99
2022-09-01T06:07:57.629Z,10.93
2022-09-01T06:08:56.491Z,10.87
2022-09-01T06:09:56.578Z,11.01
2022-09-01T06:10:56.454Z,11.12
2022-09-01T06:11:56.449Z,11.12
2022-09-01T06:12:56.430Z,11.09
2022-09-01T06:13:56.551Z,11.17
2022-09-01T06:14:56.432Z,11.12
2022-09-01T06:15:56.448Z,11.12
2022-09-01T06:16:56.428Z,11.19
2022-09-01T06:17:56.413Z,11.24
2022-09-01T06:18:56.371Z,11.16
2022-09-01T06:19:56.453Z,11.12
2022-09-01T06:20:56.376Z,11.01
2022-09-01T06:21:56.341Z,10.90
2022-09-01T06:22:56.332Z,10.94
2022-09-01T06:23:56.319Z,10.90
2022-09-01T06:25:01.020Z,10.86
2022-09-01T06:25:57.286Z,10.78
2022-09-01T06:26:56.306Z,10.95
2022-09-01T06:27:56.288Z,11.02
2022-09-01T06:28:56.294Z,10.95
2022-09-01T06:29:56.328Z,11.06
2022-09-01T06:30:56.458Z,11.17
2022-09-01T06:31:57.224Z,11.01
2022-09-01T06:32:56.226Z,10.94
2022-09-01T06:33:56.348Z,11.05
2022-09-01T06:34:56.197Z,11.01
2022-09-01T06:35:56.206Z,11.02
2022-09-01T06:36:56.257Z,11.01
2022-09-01T06:37:56.168Z,11.03
2022-09-01T06:38:56.327Z,10.99
2022-09-01T06:39:56.376Z,11.01
2022-09-01T06:40:56.166Z,11.26
2022-09-01T06:41:56.114Z,11.17
2022-09-01T06:42:56.115Z,11.23
2022-09-01T06:43:56.083Z,11.28
2022-09-01T06:44:56.087Z,11.23
2022-09-01T06:45:56.112Z,11.23
2022-09-01T06:46:56.137Z,11.23
2022-09-01T06:47:59.312Z,11.28
2022-09-01T06:48:56.031Z,11.28
2022-09-01T06:49:58.047Z,11.26
2022-09-01T06:51:57.019Z,11.17
2022-09-01T06:53:57.273Z,11.36
2022-09-01T06:54:55.957Z,11.45
2022-09-01T06:55:55.955Z,11.44
2022-09-01T06:56:55.938Z,11.54
2022-09-01T06:58:03.954Z,11.72
2022-09-01T06:58:56.919Z,11.66
2022-09-01T06:59:55.947Z,11.72
2022-09-01T07:00:55.893Z,11.66
2022-09-01T07:02:01.369Z,11.77
2022-09-01T07:02:57.129Z,11.66
2022-09-01T07:03:55.868Z,11.67
2022-09-01T07:04:56.009Z,11.74
2022-09-01T07:07:01.253Z,11.63
2022-09-01T07:08:12.108Z,11.60
2022-09-01T07:13:12.169Z,11.70
2022-09-01T07:17:23.309Z,11.70
2022-09-01T07:17:56.778Z,11.75
2022-09-01T07:18:59.014Z,11.75
2022-09-01T07:19:55.824Z,11.57
2022-09-01T07:21:07.039Z,11.70
2022-09-01T07:22:35.619Z,11.74
2022-09-01T07:23:04.725Z,11.64
2022-09-01T07:24:12.108Z,11.64
2022-09-01T07:25:11.939Z,11.79
2022-09-01T07:26:04.375Z,11.88
2022-09-01T07:26:56.620Z,12.01
2022-09-01T07:27:55.613Z,12.04
2022-09-01T07:29:04.273Z,12.04
2022-09-01T07:29:56.582Z,12.15
2022-09-01T07:30:55.570Z,12.16
2022-09-01T07:32:56.549Z,12.11
2022-09-01T07:34:37.693Z,11.84
2022-09-01T07:34:56.662Z,11.60
2022-09-01T07:38:47.293Z,11.51
2022-09-01T07:39:56.712Z,11.31
2022-09-01T07:42:31.115Z,11.81
2022-09-01T07:43:00.046Z,11.79
2022-09-01T07:43:11.821Z,11.33
2022-09-01T07:43:56.432Z,11.17
2022-09-01T07:44:55.448Z,11.23
2022-09-01T07:45:59.117Z,11.21
2022-09-01T07:47:56.512Z,11.24
2022-09-01T07:49:28.889Z,11.49
2022-09-01T07:50:25.015Z,11.97
2022-09-01T07:51:56.477Z,12.36
2022-09-01T07:52:55.344Z,12.61
2022-09-01T07:53:55.376Z,13.38
2022-09-01T07:54:55.324Z,14.05
2022-09-01T07:55:55.328Z,14.08
2022-09-01T07:56:55.330Z,13.91
2022-09-01T07:57:55.306Z,13.69
2022-09-01T07:58:55.336Z,14.11
2022-09-01T07:59:55.273Z,14.08
2022-09-01T08:00:55.254Z,14.11
2022-09-01T08:01:55.308Z,14.06
2022-09-01T08:02:57.200Z,14.06
2022-09-01T08:03:55.218Z,13.36
2022-09-01T08:04:55.234Z,13.28
2022-09-01T08:05:55.193Z,13.36
2022-09-01T08:06:55.185Z,13.27
2022-09-01T08:07:55.180Z,13.07
2022-09-01T08:08:57.008Z,13.07
2022-09-01T08:09:56.083Z,13.06
2022-09-01T08:11:03.989Z,13.24
2022-09-01T08:12:02.037Z,13.43
2022-09-01T08:12:56.622Z,13.69
2022-09-01T08:13:55.107Z,13.84
2022-09-01T08:16:56.244Z,14.01
2022-09-01T08:17:55.118Z,13.72
2022-09-01T08:18:55.098Z,13.35
2022-09-01T08:19:55.358Z,13.32
2022-09-01T08:20:55.145Z,13.51
2022-09-01T08:21:55.048Z,13.87
2022-09-01T08:22:55.051Z,14.54
2022-09-01T08:23:55.034Z,15.09
2022-09-01T08:24:54.992Z,15.01
2022-09-01T08:25:55.009Z,14.49
2022-09-01T08:26:54.967Z,14.49
2022-09-01T08:28:01.909Z,14.95
2022-09-01T08:28:55.982Z,14.87
2022-09-01T08:29:54.943Z,14.39
2022-09-01T08:30:54.942Z,14.39
2022-09-01T08:31:54.949Z,14.90
2022-09-01T08:32:54.956Z,15.35
2022-09-01T08:33:54.929Z,15.18
2022-09-01T08:34:54.884Z,14.95
2022-09-01T08:35:54.893Z,15.35
2022-09-01T08:36:54.855Z,15.33
2022-09-01T08:37:54.949Z,15.41
2022-09-01T08:38:54.846Z,15.34
2022-09-01T08:39:55.292Z,15.59
2022-09-01T08:40:56.585Z,15.62
2022-09-01T08:41:54.874Z,15.33
2022-09-01T08:42:54.814Z,15.78
2022-09-01T08:43:54.791Z,16.16
2022-09-01T08:44:54.769Z,15.86
2022-09-01T08:45:54.859Z,15.81
2022-09-01T08:46:54.799Z,15.80
2022-09-01T08:48:22.552Z,15.84
2022-09-01T08:49:55.745Z,16.08
2022-09-01T08:50:55.099Z,15.93
2022-09-01T08:51:54.702Z,15.96
2022-09-01T08:52:54.725Z,15.84
2022-09-01T08:53:54.748Z,16.03
2022-09-01T08:54:54.679Z,15.98
2022-09-01T08:55:54.693Z,16.37
2022-09-01T08:56:54.667Z,16.36
2022-09-01T08:57:59.012Z,16.25
2022-09-01T08:58:56.118Z,16.54
2022-09-01T08:59:54.612Z,16.55
2022-09-01T09:00:55.088Z,17.03
2022-09-01T09:01:54.841Z,17.14
2022-09-01T09:02:54.637Z,17.53
2022-09-01T09:03:54.581Z,17.24
2022-09-01T09:04:54.569Z,17.53
2022-09-01T09:05:54.554Z,17.65
2022-09-01T09:06:54.536Z,17.87
2022-09-01T09:08:06.506Z,17.18
2022-09-01T09:08:55.510Z,17.06
2022-09-01T09:09:54.518Z,16.52
2022-09-01T09:10:54.512Z,17.43
2022-09-01T09:11:54.490Z,18.16
2022-09-01T09:12:54.474Z,18.56
2022-09-01T09:13:54.465Z,17.87
2022-09-01T09:14:54.488Z,17.70
2022-09-01T09:16:07.387Z,17.36
2022-09-01T09:16:55.432Z,16.90
2022-09-01T09:17:59.612Z,17.07
2022-09-01T09:18:56.225Z,17.46
2022-09-01T09:19:54.404Z,17.17
2022-09-01T09:20:54.409Z,16.55
2022-09-01T09:21:54.407Z,16.42
2022-09-01T09:22:54.364Z,16.45
2022-09-01T09:23:55.886Z,16.33
2022-09-01T09:24:54.345Z,16.16
2022-09-01T09:25:54.335Z,15.96
2022-09-01T09:26:54.437Z,16.18
2022-09-01T09:28:01.525Z,15.76
2022-09-01T09:28:55.296Z,15.80
2022-09-01T09:29:54.278Z,15.81
2022-09-01T09:30:54.345Z,15.93
2022-09-01T09:31:54.263Z,16.14
2022-09-01T09:33:44.302Z,15.95
2022-09-01T09:33:55.587Z,15.81
2022-09-01T09:34:54.226Z,15.78
2022-09-01T09:35:54.214Z,16.13
2022-09-01T09:36:57.031Z,16.65
2022-09-01T09:37:54.197Z,16.63
2022-09-01T09:38:54.197Z,17.03
2022-09-01T09:39:54.188Z,17.17
2022-09-01T09:41:14.359Z,17.60
2022-09-01T09:41:55.202Z,17.76
2022-09-01T09:42:54.140Z,18.25
2022-09-01T09:43:54.163Z,18.19
2022-09-01T09:44:54.122Z,18.64
2022-09-01T09:45:54.166Z,18.62
2022-09-01T09:46:54.134Z,18.56
2022-09-01T09:47:54.099Z,18.42
2022-09-01T09:48:54.094Z,18.83
2022-09-01T09:49:54.066Z,19.24
2022-09-01T09:50:54.067Z,18.53
2022-09-01T09:51:54.084Z,18.69
2022-09-01T09:52:54.030Z,18.59
2022-09-01T09:53:54.355Z,18.49
2022-09-01T09:54:54.018Z,18.16
2022-09-01T09:55:56.212Z,18.01
2022-09-01T09:56:53.982Z,18.16
2022-09-01T09:57:53.981Z,18.32
2022-09-01T09:58:53.973Z,18.11
2022-09-01T10:00:00.398Z,18.34
2022-09-01T10:00:55.001Z,18.78
2022-09-01T10:01:53.926Z,19.09
2022-09-01T10:02:54.002Z,18.59
2022-09-01T10:03:53.950Z,17.98
2022-09-01T10:04:55.903Z,17.71
2022-09-01T10:05:53.935Z,17.83
2022-09-01T10:06:53.891Z,17.63
2022-09-01T10:07:53.872Z,17.99
2022-09-01T10:08:53.903Z,18.19
2022-09-01T10:09:53.846Z,18.17
2022-09-01T10:10:58.435Z,18.44
2022-09-01T10:11:53.849Z,18.26
2022-09-01T10:12:53.824Z,18.68
2022-09-01T10:13:53.846Z,18.76
2022-09-01T10:14:53.857Z,18.90
2022-09-01T10:15:53.785Z,18.35
2022-09-01T10:16:53.863Z,18.36
2022-09-01T10:18:19.698Z,18.36
2022-09-01T10:18:54.753Z,18.34
2022-09-01T10:19:53.749Z,18.82
2022-09-01T10:20:53.771Z,18.64
2022-09-01T10:21:53.719Z,18.93
2022-09-01T10:22:53.721Z,19.13
2022-09-01T10:23:53.965Z,18.97
2022-09-01T10:24:53.697Z,18.59
2022-09-01T10:25:53.690Z,18.39
2022-09-01T10:26:53.737Z,18.26
2022-09-01T10:27:55.051Z,18.25
2022-09-01T10:28:53.650Z,18.34
2022-09-01T10:30:12.219Z,18.49
2022-09-01T10:30:54.844Z,18.78
2022-09-01T10:32:14.799Z,19.01
2022-09-01T10:32:56.489Z,19.10
2022-09-01T10:33:53.596Z,19.30
2022-09-01T10:34:53.579Z,19.43
2022-09-01T10:35:53.575Z,19.61
2022-09-01T10:36:55.736Z,19.52
2022-09-01T10:37:53.559Z,19.40
2022-09-01T10:39:00.042Z,19.71
2022-09-01T10:39:54.574Z,19.79
2022-09-01T10:40:53.553Z,19.70
2022-09-01T10:42:00.165Z,19.06
2022-09-01T10:42:54.538Z,18.60
2022-09-01T10:43:54.027Z,18.21
2022-09-01T10:44:53.478Z,17.99
2022-09-01T10:45:58.701Z,17.84
2022-09-01T10:46:59.954Z,17.80
2022-09-01T10:47:54.503Z,17.84
2022-09-01T10:48:55.732Z,17.42
2022-09-01T10:49:53.416Z,17.45
2022-09-01T10:50:53.429Z,17.70
2022-09-01T10:51:56.461Z,17.77
2022-09-01T10:52:53.760Z,17.99
2022-09-01T10:53:53.376Z,18.29
2022-09-01T10:54:55.561Z,18.68
2022-09-01T10:55:59.031Z,18.62
2022-09-01T10:56:54.365Z,18.53
2022-09-01T10:57:53.338Z,18.65
2022-09-01T10:59:56.776Z,19.15
2022-09-01T11:02:23.136Z,19.71
2022-09-01T11:02:54.336Z,19.89
2022-09-01T11:03:53.559Z,19.85
2022-09-01T11:04:53.357Z,20.34
2022-09-01T11:05:59.644Z,20.31
2022-09-01T11:08:02.504Z,20.10
2022-09-01T11:08:54.226Z,20.17
2022-09-01T11:09:57.348Z,20.75
2022-09-01T11:10:53.287Z,20.66
2022-09-01T11:11:53.181Z,20.26
2022-09-01T11:12:53.170Z,20.19
2022-09-01T11:13:53.193Z,20.35
2022-09-01T11:14:53.157Z,20.78
2022-09-01T11:15:53.164Z,21.03
2022-09-01T11:16:53.281Z,20.88
2022-09-01T11:17:53.186Z,20.40
2022-09-01T11:18:53.105Z,19.82
2022-09-01T11:19:53.175Z,20.33
2022-09-01T11:20:53.090Z,20.93
2022-09-01T11:21:53.105Z,21.21
2022-09-01T11:22:53.110Z,21.38
2022-09-01T11:23:53.090Z,21.43
2022-09-01T11:25:00.330Z,20.87
2022-09-01T11:26:54.039Z,20.97
2022-09-01T11:27:53.124Z,21.22
2022-09-01T11:28:54.018Z,20.64
2022-09-01T11:29:53.024Z,20.27
2022-09-01T11:30:53.137Z,19.71
2022-09-01T11:33:14.011Z,19.43
2022-09-01T11:34:13.987Z,19.16
2022-09-01T11:35:13.736Z,18.90
2022-09-01T11:36:14.341Z,19.13
2022-09-01T11:38:35.714Z,19.06
2022-09-01T11:39:34.574Z,19.06
2022-09-01T11:40:34.578Z,18.74
2022-09-01T11:41:34.514Z,18.71
2022-09-01T11:42:34.455Z,18.71
2022-09-01T11:43:34.433Z,18.79
2022-09-01T11:44:34.349Z,18.86
2022-09-01T11:45:34.480Z,18.84
2022-09-01T11:46:34.414Z,18.89
2022-09-01T11:47:34.331Z,18.93
2022-09-01T11:48:34.504Z,19.31
2022-09-01T11:49:34.289Z,19.68
2022-09-01T11:50:34.310Z,19.94
2022-09-01T11:51:34.291Z,19.76
2022-09-01T11:52:34.263Z,20.22
2022-09-01T11:53:34.262Z,19.78
2022-09-01T11:54:34.288Z,19.71
2022-09-01T11:55:34.538Z,20.17
2022-09-01T11:56:34.221Z,20.27
2022-09-01T11:57:34.241Z,19.80
2022-09-01T11:58:34.203Z,19.78
2022-09-01T11:59:34.179Z,19.28
2022-09-01T12:00:34.185Z,19.39
2022-09-01T12:01:34.177Z,19.35
2022-09-01T12:02:36.634Z,19.61
2022-09-01T12:03:34.227Z,19.78
2022-09-01T12:04:34.223Z,19.61
2022-09-01T12:05:35.126Z,19.50
2022-09-01T12:06:34.113Z,19.21
2022-09-01T12:07:34.104Z,18.94
2022-09-01T12:08:34.097Z,18.64
2022-09-01T12:09:34.269Z,18.82
2022-09-01T12:10:34.141Z,18.89
2022-09-01T12:11:35.151Z,19.09
2022-09-01T12:12:34.045Z,19.15
2022-09-01T12:13:34.040Z,19.06
2022-09-01T12:14:55.053Z,18.94
2022-09-01T12:15:35.054Z,18.71
2022-09-01T12:16:34.149Z,18.76
2022-09-01T12:17:33.982Z,18.68
2022-09-01T12:18:34.009Z,18.71
2022-09-01T12:19:33.980Z,18.82
2022-09-01T12:20:34.090Z,19.13
2022-09-01T12:21:33.935Z,19.12
2022-09-01T12:22:33.929Z,19.09
2022-09-01T12:23:33.970Z,18.84
2022-09-01T12:24:34.018Z,18.91
2022-09-01T12:25:33.977Z,18.94
2022-09-01T12:26:33.904Z,18.82
2022-09-01T12:27:33.875Z,18.71
2022-09-01T12:28:33.897Z,18.53
2022-09-01T12:29:33.857Z,18.36
2022-09-01T12:30:33.851Z,18.31
2022-09-01T12:31:33.859Z,18.29
2022-09-01T12:32:33.934Z,18.11
2022-09-01T12:33:33.877Z,18.07
2022-09-01T12:34:33.800Z,17.96
2022-09-01T12:35:33.871Z,17.87
2022-09-01T12:36:33.822Z,17.76
2022-09-01T12:37:33.777Z,17.71
2022-09-01T12:38:33.770Z,17.66
2022-09-01T12:39:33.912Z,17.77
2022-09-01T12:40:33.767Z,17.65
2022-09-01T12:41:33.737Z,17.81
2022-09-01T12:42:41.453Z,17.83
2022-09-01T12:43:34.706Z,17.79
2022-09-01T12:44:33.712Z,17.76
2022-09-01T12:45:34.277Z,17.80
2022-09-01T12:46:33.683Z,17.68
2022-09-01T12:47:33.663Z,17.80
2022-09-01T12:48:33.637Z,17.63
2022-09-01T12:49:33.654Z,17.70
2022-09-01T12:50:33.623Z,17.74
2022-09-01T12:51:33.601Z,17.71
2022-09-01T12:52:33.593Z,17.65
2022-09-01T12:53:36.745Z,17.62
2022-09-01T12:54:33.622Z,17.62
2022-09-01T12:55:49.024Z,17.70
2022-09-01T12:56:34.546Z,17.57
2022-09-01T12:57:33.529Z,17.60
2022-09-01T12:58:33.515Z,17.55
2022-09-01T12:59:37.401Z,17.65
2022-09-01T13:00:33.529Z,17.68
2022-09-01T13:01:33.641Z,17.60
2022-09-01T13:02:33.695Z,17.55
2022-09-01T13:03:34.771Z,17.51
2022-09-01T13:04:33.492Z,17.70
2022-09-01T13:05:39.451Z,17.79
2022-09-01T13:06:34.473Z,17.83
2022-09-01T13:07:33.424Z,17.84
2022-09-01T13:08:33.437Z,17.83
2022-09-01T13:09:33.403Z,17.84
2022-09-01T13:10:33.386Z,17.58
2022-09-01T13:12:34.367Z,17.68
2022-09-01T13:13:33.362Z,17.77
2022-09-01T13:14:33.341Z,17.63
2022-09-01T13:15:33.343Z,17.60
2022-09-01T13:16:33.370Z,17.66
2022-09-01T13:17:33.338Z,17.81
2022-09-01T13:19:09.922Z,17.81
2022-09-01T13:19:34.288Z,18.26
2022-09-01T13:20:33.276Z,18.66
2022-09-01T13:21:33.310Z,18.91